sensor_id;sensor_type;location;lat;lon;timestamp;P1;durP1;ratioP1;P2;durP2;ratioP2
25917;SDS011;13899;51.174;4.456;2024-01-11T00:00:47;39.05;;;24.42;;
25917;SDS011;13899;51.174;4.456;2024-01-11T00:03:13;35.23;;;20.33;;
25917;SDS011;13899;51.174;4.456;2024-01-11T00:05:39;40.65;;;23.65;;
25917;SDS011;13899;51.174;4.456;2024-01-11T00:08:06;44.15;;;23.85;;
25917;SDS011;13899;51.174;4.456;2024-01-11T00:10:32;32.53;;;18.80;;
25917;SDS011;13899;51.174;4.456;2024-01-11T00:12:58;36.17;;;19.70;;
25917;SDS011;13899;51.174;4.456;2024-01-11T00:15:23;33.63;;;19.33;;
25917;SDS011;13899;51.174;4.456;2024-01-11T00:17:49;28.17;;;19.40;;
25917;SDS011;13899;51.174;4.456;2024-01-11T00:20:15;29.70;;;19.00;;
25917;SDS011;13899;51.174;4.456;2024-01-11T00:22:40;38.83;;;23.67;;
25917;SDS011;13899;51.174;4.456;2024-01-11T00:25:06;29.63;;;18.90;;
25917;SDS011;13899;51.174;4.456;2024-01-11T00:27:32;44.20;;;24.85;;
25917;SDS011;13899;51.174;4.456;2024-01-11T00:29:58;33.85;;;22.73;;
25917;SDS011;13899;51.174;4.456;2024-01-11T00:32:23;40.30;;;20.33;;
25917;SDS011;13899;51.174;4.456;2024-01-11T00:34:49;42.53;;;24.20;;
25917;SDS011;13899;51.174;4.456;2024-01-11T00:37:16;40.60;;;21.47;;
25917;SDS011;13899;51.174;4.456;2024-01-11T00:39:41;46.13;;;21.95;;
25917;SDS011;13899;51.174;4.456;2024-01-11T00:42:07;37.73;;;20.50;;
25917;SDS011;13899;51.174;4.456;2024-01-11T00:44:33;31.50;;;16.33;;
25917;SDS011;13899;51.174;4.456;2024-01-11T00:46:59;25.85;;;16.15;;
25917;SDS011;13899;51.174;4.456;2024-01-11T00:49:24;34.37;;;22.57;;
25917;SDS011;13899;51.174;4.456;2024-01-11T00:51:50;31.60;;;17.53;;
25917;SDS011;13899;51.174;4.456;2024-01-11T00:54:15;31.60;;;16.83;;
25917;SDS011;13899;51.174;4.456;2024-01-11T00:56:41;37.77;;;21.70;;
25917;SDS011;13899;51.174;4.456;2024-01-11T00:59:07;39.00;;;21.47;;
25917;SDS011;13899;51.174;4.456;2024-01-11T01:01:32;30.43;;;15.93;;
25917;SDS011;13899;51.174;4.456;2024-01-11T01:03:58;41.33;;;22.40;;
25917;SDS011;13899;51.174;4.456;2024-01-11T01:06:24;46.27;;;22.80;;
25917;SDS011;13899;51.174;4.456;2024-01-11T01:08:49;44.57;;;23.20;;
25917;SDS011;13899;51.174;4.456;2024-01-11T01:11:15;30.87;;;17.07;;
25917;SDS011;13899;51.174;4.456;2024-01-11T01:13:40;37.97;;;22.97;;
25917;SDS011;13899;51.174;4.456;2024-01-11T01:16:06;37.67;;;17.27;;
25917;SDS011;13899;51.174;4.456;2024-01-11T01:18:32;31.03;;;16.70;;
25917;SDS011;13899;51.174;4.456;2024-01-11T01:20:57;31.73;;;16.43;;
25917;SDS011;13899;51.174;4.456;2024-01-11T01:23:23;46.83;;;22.93;;
25917;SDS011;13899;51.174;4.456;2024-01-11T01:25:48;36.90;;;20.83;;
25917;SDS011;13899;51.174;4.456;2024-01-11T01:28:14;34.23;;;17.90;;
25917;SDS011;13899;51.174;4.456;2024-01-11T01:30:40;32.90;;;18.23;;
25917;SDS011;13899;51.174;4.456;2024-01-11T01:33:05;45.10;;;22.40;;
25917;SDS011;13899;51.174;4.456;2024-01-11T01:35:31;33.33;;;17.87;;
25917;SDS011;13899;51.174;4.456;2024-01-11T01:37:58;48.08;;;23.90;;
25917;SDS011;13899;51.174;4.456;2024-01-11T01:40:24;44.10;;;24.67;;
25917;SDS011;13899;51.174;4.456;2024-01-11T01:42:49;34.20;;;17.63;;
25917;SDS011;13899;51.174;4.456;2024-01-11T01:45:15;48.23;;;23.63;;
25917;SDS011;13899;51.174;4.456;2024-01-11T01:47:42;46.13;;;23.50;;
25917;SDS011;13899;51.174;4.456;2024-01-11T01:50:10;46.95;;;23.42;;
25917;SDS011;13899;51.174;4.456;2024-01-11T01:52:36;53.47;;;23.70;;
25917;SDS011;13899;51.174;4.456;2024-01-11T01:55:05;42.67;;;22.90;;
25917;SDS011;13899;51.174;4.456;2024-01-11T01:57:34;47.55;;;23.23;;
25917;SDS011;13899;51.174;4.456;2024-01-11T02:00:00;42.00;;;22.80;;
25917;SDS011;13899;51.174;4.456;2024-01-11T02:02:27;43.78;;;23.45;;
25917;SDS011;13899;51.174;4.456;2024-01-11T02:04:55;47.83;;;24.30;;
25917;SDS011;13899;51.174;4.456;2024-01-11T02:07:21;46.00;;;23.83;;
25917;SDS011;13899;51.174;4.456;2024-01-11T02:09:47;38.28;;;20.40;;
25917;SDS011;13899;51.174;4.456;2024-01-11T02:12:13;35.10;;;18.33;;
25917;SDS011;13899;51.174;4.456;2024-01-11T02:14:40;46.97;;;24.38;;
25917;SDS011;13899;51.174;4.456;2024-01-11T02:17:05;38.17;;;20.10;;
25917;SDS011;13899;51.174;4.456;2024-01-11T02:19:31;36.83;;;18.38;;
25917;SDS011;13899;51.174;4.456;2024-01-11T02:21:59;44.38;;;23.02;;
25917;SDS011;13899;51.174;4.456;2024-01-11T02:24:30;48.28;;;24.45;;
25917;SDS011;13899;51.174;4.456;2024-01-11T02:26:59;31.80;;;17.85;;
25917;SDS011;13899;51.174;4.456;2024-01-11T02:29:27;49.47;;;24.85;;
25917;SDS011;13899;51.174;4.456;2024-01-11T02:31:57;50.08;;;24.55;;
25917;SDS011;13899;51.174;4.456;2024-01-11T02:34:24;46.85;;;24.38;;
25917;SDS011;13899;51.174;4.456;2024-01-11T02:36:51;50.30;;;26.63;;
25917;SDS011;13899;51.174;4.456;2024-01-11T02:39:16;39.92;;;20.77;;
25917;SDS011;13899;51.174;4.456;2024-01-11T02:41:44;50.28;;;25.00;;
25917;SDS011;13899;51.174;4.456;2024-01-11T02:44:10;43.57;;;24.43;;
25917;SDS011;13899;51.174;4.456;2024-01-11T02:46:36;46.37;;;24.50;;
25917;SDS011;13899;51.174;4.456;2024-01-11T02:49:01;45.73;;;24.17;;
25917;SDS011;13899;51.174;4.456;2024-01-11T02:51:27;35.87;;;18.70;;
25917;SDS011;13899;51.174;4.456;2024-01-11T02:53:52;41.17;;;19.73;;
25917;SDS011;13899;51.174;4.456;2024-01-11T02:56:18;53.30;;;24.60;;
25917;SDS011;13899;51.174;4.456;2024-01-11T02:58:44;50.27;;;24.03;;
25917;SDS011;13899;51.174;4.456;2024-01-11T03:01:09;41.47;;;20.27;;
25917;SDS011;13899;51.174;4.456;2024-01-11T03:03:35;33.03;;;19.20;;
25917;SDS011;13899;51.174;4.456;2024-01-11T03:06:01;42.53;;;19.70;;
25917;SDS011;13899;51.174;4.456;2024-01-11T03:08:26;47.57;;;24.67;;
25917;SDS011;13899;51.174;4.456;2024-01-11T03:10:52;45.65;;;23.70;;
25917;SDS011;13899;51.174;4.456;2024-01-11T03:13:18;47.77;;;24.37;;
25917;SDS011;13899;51.174;4.456;2024-01-11T03:15:43;45.90;;;24.53;;
25917;SDS011;13899;51.174;4.456;2024-01-11T03:18:09;32.47;;;18.07;;
25917;SDS011;13899;51.174;4.456;2024-01-11T03:20:35;33.10;;;17.87;;
25917;SDS011;13899;51.174;4.456;2024-01-11T03:23:00;53.60;;;24.63;;
25917;SDS011;13899;51.174;4.456;2024-01-11T03:25:26;45.63;;;24.27;;
25917;SDS011;13899;51.174;4.456;2024-01-11T03:27:52;32.27;;;18.23;;
25917;SDS011;13899;51.174;4.456;2024-01-11T03:30:17;38.77;;;17.83;;
25917;SDS011;13899;51.174;4.456;2024-01-11T03:32:43;43.93;;;23.33;;
25917;SDS011;13899;51.174;4.456;2024-01-11T03:35:09;36.67;;;19.40;;
25917;SDS011;13899;51.174;4.456;2024-01-11T03:37:35;42.42;;;22.90;;
25917;SDS011;13899;51.174;4.456;2024-01-11T03:40:02;46.70;;;23.23;;
25917;SDS011;13899;51.174;4.456;2024-01-11T03:42:29;45.58;;;23.67;;
25917;SDS011;13899;51.174;4.456;2024-01-11T03:44:55;42.13;;;22.40;;
25917;SDS011;13899;51.174;4.456;2024-01-11T03:47:21;33.20;;;17.97;;
25917;SDS011;13899;51.174;4.456;2024-01-11T03:49:46;47.50;;;24.47;;
25917;SDS011;13899;51.174;4.456;2024-01-11T03:52:12;48.47;;;21.70;;
25917;SDS011;13899;51.174;4.456;2024-01-11T03:54:38;52.47;;;24.43;;
25917;SDS011;13899;51.174;4.456;2024-01-11T03:57:03;37.72;;;19.92;;
25917;SDS011;13899;51.174;4.456;2024-01-11T03:59:31;46.92;;;23.60;;
25917;SDS011;13899;51.174;4.456;2024-01-11T04:01:57;33.47;;;18.57;;
25917;SDS011;13899;51.174;4.456;2024-01-11T04:04:23;45.92;;;23.13;;
25917;SDS011;13899;51.174;4.456;2024-01-11T04:06:48;32.30;;;18.40;;
25917;SDS011;13899;51.174;4.456;2024-01-11T04:09:14;27.88;;;17.13;;
25917;SDS011;13899;51.174;4.456;2024-01-11T04:11:40;45.03;;;23.67;;
25917;SDS011;13899;51.174;4.456;2024-01-11T04:14:06;41.47;;;22.93;;
25917;SDS011;13899;51.174;4.456;2024-01-11T04:16:31;39.77;;;18.67;;
25917;SDS011;13899;51.174;4.456;2024-01-11T04:18:57;37.60;;;17.87;;
25917;SDS011;13899;51.174;4.456;2024-01-11T04:21:23;33.60;;;17.80;;
25917;SDS011;13899;51.174;4.456;2024-01-11T04:23:56;47.70;;;23.65;;
25917;SDS011;13899;51.174;4.456;2024-01-11T04:26:22;48.13;;;24.38;;
25917;SDS011;13899;51.174;4.456;2024-01-11T04:28:49;52.10;;;23.10;;
25917;SDS011;13899;51.174;4.456;2024-01-11T04:31:15;47.17;;;22.73;;
25917;SDS011;13899;51.174;4.456;2024-01-11T04:33:44;41.15;;;21.98;;
25917;SDS011;13899;51.174;4.456;2024-01-11T04:36:11;47.85;;;23.70;;
25917;SDS011;13899;51.174;4.456;2024-01-11T04:38:38;41.50;;;22.85;;
25917;SDS011;13899;51.174;4.456;2024-01-11T04:41:07;53.58;;;24.58;;
25917;SDS011;13899;51.174;4.456;2024-01-11T04:43:35;38.58;;;22.10;;
25917;SDS011;13899;51.174;4.456;2024-01-11T04:46:17;46.08;;;24.92;;
25917;SDS011;13899;51.174;4.456;2024-01-11T04:48:43;45.08;;;22.95;;
25917;SDS011;13899;51.174;4.456;2024-01-11T04:51:09;45.05;;;23.75;;
25917;SDS011;13899;51.174;4.456;2024-01-11T04:53:39;56.20;;;24.80;;
25917;SDS011;13899;51.174;4.456;2024-01-11T04:56:12;48.90;;;22.80;;
25917;SDS011;13899;51.174;4.456;2024-01-11T04:58:40;48.15;;;23.65;;
25917;SDS011;13899;51.174;4.456;2024-01-11T05:01:06;44.70;;;22.58;;
25917;SDS011;13899;51.174;4.456;2024-01-11T05:03:36;45.03;;;22.80;;
25917;SDS011;13899;51.174;4.456;2024-01-11T05:06:01;46.30;;;24.50;;
25917;SDS011;13899;51.174;4.456;2024-01-11T05:08:27;44.40;;;22.27;;
25917;SDS011;13899;51.174;4.456;2024-01-11T05:10:54;50.60;;;24.08;;
25917;SDS011;13899;51.174;4.456;2024-01-11T05:15:46;50.13;;;23.33;;
25917;SDS011;13899;51.174;4.456;2024-01-11T05:18:12;44.03;;;22.90;;
25917;SDS011;13899;51.174;4.456;2024-01-11T05:20:38;47.60;;;22.73;;
25917;SDS011;13899;51.174;4.456;2024-01-11T05:23:04;32.65;;;17.77;;
25917;SDS011;13899;51.174;4.456;2024-01-11T05:25:30;39.03;;;17.95;;
25917;SDS011;13899;51.174;4.456;2024-01-11T05:28:00;42.25;;;22.05;;
25917;SDS011;13899;51.174;4.456;2024-01-11T05:30:26;43.53;;;22.80;;
25917;SDS011;13899;51.174;4.456;2024-01-11T05:32:52;42.97;;;22.30;;
25917;SDS011;13899;51.174;4.456;2024-01-11T05:35:18;48.03;;;23.03;;
25917;SDS011;13899;51.174;4.456;2024-01-11T05:37:43;37.93;;;19.10;;
25917;SDS011;13899;51.174;4.456;2024-01-11T05:40:09;41.00;;;22.30;;
25917;SDS011;13899;51.174;4.456;2024-01-11T05:42:35;28.37;;;17.20;;
25917;SDS011;13899;51.174;4.456;2024-01-11T05:45:00;42.03;;;21.37;;
25917;SDS011;13899;51.174;4.456;2024-01-11T05:47:26;32.70;;;16.47;;
25917;SDS011;13899;51.174;4.456;2024-01-11T05:49:52;41.93;;;21.40;;
25917;SDS011;13899;51.174;4.456;2024-01-11T05:52:17;33.53;;;18.30;;
25917;SDS011;13899;51.174;4.456;2024-01-11T05:54:43;42.07;;;21.43;;
25917;SDS011;13899;51.174;4.456;2024-01-11T05:57:08;36.87;;;18.73;;
25917;SDS011;13899;51.174;4.456;2024-01-11T05:59:34;54.40;;;23.47;;
25917;SDS011;13899;51.174;4.456;2024-01-11T06:02:00;43.50;;;22.87;;
25917;SDS011;13899;51.174;4.456;2024-01-11T06:06:52;45.30;;;22.10;;
25917;SDS011;13899;51.174;4.456;2024-01-11T06:09:17;41.37;;;20.20;;
25917;SDS011;13899;51.174;4.456;2024-01-11T06:11:43;50.90;;;23.67;;
25917;SDS011;13899;51.174;4.456;2024-01-11T06:14:09;41.73;;;24.73;;
25917;SDS011;13899;51.174;4.456;2024-01-11T06:16:34;45.30;;;25.50;;
25917;SDS011;13899;51.174;4.456;2024-01-11T06:19:00;42.78;;;24.98;;
25917;SDS011;13899;51.174;4.456;2024-01-11T06:21:26;45.87;;;24.70;;
25917;SDS011;13899;51.174;4.456;2024-01-11T06:23:51;43.70;;;26.10;;
25917;SDS011;13899;51.174;4.456;2024-01-11T06:26:18;51.17;;;24.95;;
25917;SDS011;13899;51.174;4.456;2024-01-11T06:28:44;47.63;;;25.63;;
25917;SDS011;13899;51.174;4.456;2024-01-11T06:31:09;48.63;;;25.47;;
25917;SDS011;13899;51.174;4.456;2024-01-11T06:33:35;42.90;;;24.85;;
25917;SDS011;13899;51.174;4.456;2024-01-11T06:36:07;41.78;;;24.15;;
25917;SDS011;13899;51.174;4.456;2024-01-11T06:38:33;44.97;;;22.92;;
25917;SDS011;13899;51.174;4.456;2024-01-11T06:40:59;44.03;;;18.30;;
25917;SDS011;13899;51.174;4.456;2024-01-11T06:43:25;45.83;;;23.63;;
25917;SDS011;13899;51.174;4.456;2024-01-11T06:45:50;48.37;;;24.73;;
25917;SDS011;13899;51.174;4.456;2024-01-11T06:48:18;45.28;;;24.13;;
25917;SDS011;13899;51.174;4.456;2024-01-11T06:50:43;38.73;;;18.33;;
25917;SDS011;13899;51.174;4.456;2024-01-11T06:53:09;49.50;;;25.63;;
25917;SDS011;13899;51.174;4.456;2024-01-11T06:55:34;36.70;;;19.57;;
25917;SDS011;13899;51.174;4.456;2024-01-11T06:58:00;41.73;;;24.00;;
25917;SDS011;13899;51.174;4.456;2024-01-11T07:02:52;42.42;;;23.42;;
25917;SDS011;13899;51.174;4.456;2024-01-11T07:05:18;53.13;;;24.75;;
25917;SDS011;13899;51.174;4.456;2024-01-11T07:07:44;49.70;;;26.10;;
25917;SDS011;13899;51.174;4.456;2024-01-11T07:10:10;45.10;;;24.27;;
25917;SDS011;13899;51.174;4.456;2024-01-11T07:12:36;32.45;;;18.20;;
25917;SDS011;13899;51.174;4.456;2024-01-11T07:15:03;39.33;;;23.33;;
25917;SDS011;13899;51.174;4.456;2024-01-11T07:17:30;50.47;;;26.25;;
25917;SDS011;13899;51.174;4.456;2024-01-11T07:19:55;52.65;;;24.77;;
25917;SDS011;13899;51.174;4.456;2024-01-11T07:22:21;36.87;;;20.27;;
25917;SDS011;13899;51.174;4.456;2024-01-11T07:24:47;50.23;;;24.63;;
25917;SDS011;13899;51.174;4.456;2024-01-11T07:27:12;47.20;;;24.33;;
25917;SDS011;13899;51.174;4.456;2024-01-11T07:29:38;41.35;;;18.20;;
25917;SDS011;13899;51.174;4.456;2024-01-11T07:32:04;34.33;;;18.33;;
25917;SDS011;13899;51.174;4.456;2024-01-11T07:34:30;30.20;;;18.75;;
25917;SDS011;13899;51.174;4.456;2024-01-11T07:36:56;55.45;;;27.13;;
25917;SDS011;13899;51.174;4.456;2024-01-11T07:39:22;46.67;;;23.43;;
25917;SDS011;13899;51.174;4.456;2024-01-11T07:41:49;45.03;;;22.45;;
25917;SDS011;13899;51.174;4.456;2024-01-11T07:44:15;36.43;;;18.07;;
25917;SDS011;13899;51.174;4.456;2024-01-11T07:46:40;30.47;;;16.77;;
25917;SDS011;13899;51.174;4.456;2024-01-11T07:49:06;38.93;;;22.20;;
25917;SDS011;13899;51.174;4.456;2024-01-11T07:51:33;53.80;;;24.90;;
25917;SDS011;13899;51.174;4.456;2024-01-11T07:53:59;50.33;;;23.48;;
25917;SDS011;13899;51.174;4.456;2024-01-11T07:56:25;44.00;;;23.67;;
25917;SDS011;13899;51.174;4.456;2024-01-11T07:58:51;53.00;;;24.60;;
25917;SDS011;13899;51.174;4.456;2024-01-11T08:01:17;38.53;;;19.33;;
25917;SDS011;13899;51.174;4.456;2024-01-11T08:03:42;33.53;;;18.87;;
25917;SDS011;13899;51.174;4.456;2024-01-11T08:06:12;39.33;;;21.88;;
25917;SDS011;13899;51.174;4.456;2024-01-11T08:08:38;44.50;;;22.67;;
25917;SDS011;13899;51.174;4.456;2024-01-11T08:11:04;45.60;;;22.52;;
25917;SDS011;13899;51.174;4.456;2024-01-11T08:13:32;48.95;;;23.27;;
25917;SDS011;13899;51.174;4.456;2024-01-11T08:15:59;55.15;;;23.90;;
25917;SDS011;13899;51.174;4.456;2024-01-11T08:18:26;43.88;;;22.70;;
25917;SDS011;13899;51.174;4.456;2024-01-11T08:20:52;33.00;;;17.90;;
25917;SDS011;13899;51.174;4.456;2024-01-11T08:23:17;45.93;;;23.63;;
25917;SDS011;13899;51.174;4.456;2024-01-11T08:25:43;32.20;;;17.37;;
25917;SDS011;13899;51.174;4.456;2024-01-11T08:28:09;41.67;;;22.25;;
25917;SDS011;13899;51.174;4.456;2024-01-11T08:30:35;47.53;;;22.10;;
25917;SDS011;13899;51.174;4.456;2024-01-11T08:33:01;43.15;;;22.75;;
25917;SDS011;13899;51.174;4.456;2024-01-11T08:35:28;39.88;;;22.63;;
25917;SDS011;13899;51.174;4.456;2024-01-11T08:37:55;39.90;;;18.15;;
25917;SDS011;13899;51.174;4.456;2024-01-11T08:40:20;35.03;;;18.70;;
25917;SDS011;13899;51.174;4.456;2024-01-11T08:42:46;31.40;;;16.30;;
25917;SDS011;13899;51.174;4.456;2024-01-11T08:45:12;46.28;;;23.27;;
25917;SDS011;13899;51.174;4.456;2024-01-11T08:47:43;48.72;;;24.27;;
25917;SDS011;13899;51.174;4.456;2024-01-11T08:52:37;44.63;;;20.90;;
25917;SDS011;13899;51.174;4.456;2024-01-11T08:57:30;44.80;;;21.95;;
25917;SDS011;13899;51.174;4.456;2024-01-11T08:59:56;38.37;;;21.77;;
25917;SDS011;13899;51.174;4.456;2024-01-11T09:02:22;32.28;;;17.63;;
25917;SDS011;13899;51.174;4.456;2024-01-11T09:04:48;35.57;;;21.50;;
25917;SDS011;13899;51.174;4.456;2024-01-11T09:07:14;36.28;;;20.35;;
25917;SDS011;13899;51.174;4.456;2024-01-11T09:12:06;31.90;;;18.37;;
25917;SDS011;13899;51.174;4.456;2024-01-11T09:14:32;26.27;;;15.77;;
25917;SDS011;13899;51.174;4.456;2024-01-11T09:16:57;34.63;;;19.30;;
25917;SDS011;13899;51.174;4.456;2024-01-11T09:19:23;33.20;;;18.30;;
25917;SDS011;13899;51.174;4.456;2024-01-11T09:21:49;32.17;;;16.67;;
25917;SDS011;13899;51.174;4.456;2024-01-11T09:24:14;34.57;;;19.57;;
25917;SDS011;13899;51.174;4.456;2024-01-11T09:26:40;38.97;;;20.73;;
25917;SDS011;13899;51.174;4.456;2024-01-11T09:29:06;36.10;;;20.20;;
25917;SDS011;13899;51.174;4.456;2024-01-11T09:31:31;34.47;;;20.47;;
25917;SDS011;13899;51.174;4.456;2024-01-11T09:33:57;25.87;;;16.03;;
25917;SDS011;13899;51.174;4.456;2024-01-11T09:36:23;37.77;;;21.27;;
25917;SDS011;13899;51.174;4.456;2024-01-11T09:38:48;31.67;;;19.53;;
25917;SDS011;13899;51.174;4.456;2024-01-11T09:41:14;34.47;;;20.33;;
25917;SDS011;13899;51.174;4.456;2024-01-11T09:43:43;31.47;;;19.47;;
25917;SDS011;13899;51.174;4.456;2024-01-11T09:46:10;34.50;;;18.77;;
25917;SDS011;13899;51.174;4.456;2024-01-11T09:53:32;26.17;;;18.10;;
25917;SDS011;13899;51.174;4.456;2024-01-11T09:55:59;30.55;;;19.13;;
25917;SDS011;13899;51.174;4.456;2024-01-11T09:58:25;33.65;;;18.58;;
25917;SDS011;13899;51.174;4.456;2024-01-11T10:00:55;31.77;;;17.85;;
25917;SDS011;13899;51.174;4.456;2024-01-11T10:03:22;23.45;;;16.92;;
25917;SDS011;13899;51.174;4.456;2024-01-11T10:05:49;29.98;;;18.45;;
25917;SDS011;13899;51.174;4.456;2024-01-11T10:08:19;36.65;;;17.98;;
25917;SDS011;13899;51.174;4.456;2024-01-11T10:10:47;35.10;;;24.65;;
25917;SDS011;13899;51.174;4.456;2024-01-11T10:13:13;27.92;;;18.05;;
25917;SDS011;13899;51.174;4.456;2024-01-11T10:15:39;26.02;;;19.38;;
25917;SDS011;13899;51.174;4.456;2024-01-11T10:18:04;23.90;;;19.83;;
25917;SDS011;13899;51.174;4.456;2024-01-11T10:20:30;27.65;;;20.02;;
25917;SDS011;13899;51.174;4.456;2024-01-11T10:22:57;24.20;;;21.73;;
25917;SDS011;13899;51.174;4.456;2024-01-11T10:25:24;27.10;;;21.58;;
25917;SDS011;13899;51.174;4.456;2024-01-11T10:27:50;28.23;;;22.27;;
25917;SDS011;13899;51.174;4.456;2024-01-11T10:30:16;29.45;;;20.50;;
25917;SDS011;13899;51.174;4.456;2024-01-11T10:32:43;28.63;;;20.38;;
25917;SDS011;13899;51.174;4.456;2024-01-11T10:35:09;27.17;;;20.08;;
25917;SDS011;13899;51.174;4.456;2024-01-11T10:37:34;27.10;;;18.98;;
25917;SDS011;13899;51.174;4.456;2024-01-11T10:40:04;27.17;;;20.30;;
25917;SDS011;13899;51.174;4.456;2024-01-11T10:42:35;23.42;;;18.10;;
25917;SDS011;13899;51.174;4.456;2024-01-11T10:45:05;25.40;;;19.45;;
25917;SDS011;13899;51.174;4.456;2024-01-11T10:47:38;21.75;;;18.17;;
25917;SDS011;13899;51.174;4.456;2024-01-11T10:50:06;26.23;;;19.42;;
25917;SDS011;13899;51.174;4.456;2024-01-11T10:52:36;24.58;;;18.02;;
25917;SDS011;13899;51.174;4.456;2024-01-11T10:55:05;25.67;;;18.55;;
25917;SDS011;13899;51.174;4.456;2024-01-11T10:57:31;28.63;;;20.42;;
25917;SDS011;13899;51.174;4.456;2024-01-11T10:59:58;26.30;;;18.23;;
25917;SDS011;13899;51.174;4.456;2024-01-11T11:02:28;27.58;;;17.75;;
25917;SDS011;13899;51.174;4.456;2024-01-11T11:04:54;24.48;;;19.02;;
25917;SDS011;13899;51.174;4.456;2024-01-11T11:07:21;29.50;;;19.60;;
25917;SDS011;13899;51.174;4.456;2024-01-11T11:09:49;21.75;;;18.20;;
25917;SDS011;13899;51.174;4.456;2024-01-11T11:12:16;31.85;;;20.00;;
25917;SDS011;13899;51.174;4.456;2024-01-11T11:14:43;38.42;;;21.65;;
25917;SDS011;13899;51.174;4.456;2024-01-11T11:17:12;27.85;;;20.08;;
25917;SDS011;13899;51.174;4.456;2024-01-11T11:19:40;30.02;;;20.55;;
25917;SDS011;13899;51.174;4.456;2024-01-11T11:22:06;30.45;;;20.05;;
25917;SDS011;13899;51.174;4.456;2024-01-11T11:24:35;31.70;;;19.95;;
25917;SDS011;13899;51.174;4.456;2024-01-11T11:27:01;22.73;;;18.10;;
25917;SDS011;13899;51.174;4.456;2024-01-11T11:29:26;30.03;;;25.30;;
25917;SDS011;13899;51.174;4.456;2024-01-11T11:31:52;29.08;;;24.17;;
25917;SDS011;13899;51.174;4.456;2024-01-11T11:34:43;28.70;;;20.13;;
25917;SDS011;13899;51.174;4.456;2024-01-11T11:37:09;26.70;;;22.08;;
25917;SDS011;13899;51.174;4.456;2024-01-11T11:39:35;24.90;;;16.75;;
25917;SDS011;13899;51.174;4.456;2024-01-11T11:42:01;26.42;;;19.02;;
25917;SDS011;13899;51.174;4.456;2024-01-11T11:44:29;25.15;;;22.52;;
25917;SDS011;13899;51.174;4.456;2024-01-11T11:46:55;26.08;;;18.73;;
25917;SDS011;13899;51.174;4.456;2024-01-11T11:52:46;29.20;;;22.33;;
25917;SDS011;13899;51.174;4.456;2024-01-11T11:55:25;27.02;;;22.35;;
25917;SDS011;13899;51.174;4.456;2024-01-11T11:57:51;26.40;;;20.77;;
25917;SDS011;13899;51.174;4.456;2024-01-11T12:00:18;26.00;;;21.08;;
25917;SDS011;13899;51.174;4.456;2024-01-11T12:02:48;26.38;;;21.98;;
25917;SDS011;13899;51.174;4.456;2024-01-11T12:05:16;27.63;;;24.83;;
25917;SDS011;13899;51.174;4.456;2024-01-11T12:07:43;23.58;;;19.55;;
25917;SDS011;13899;51.174;4.456;2024-01-11T12:10:10;24.02;;;18.52;;
25917;SDS011;13899;51.174;4.456;2024-01-11T12:12:36;30.45;;;24.85;;
25917;SDS011;13899;51.174;4.456;2024-01-11T12:15:03;27.10;;;18.08;;
25917;SDS011;13899;51.174;4.456;2024-01-11T12:17:30;22.38;;;18.05;;
25917;SDS011;13899;51.174;4.456;2024-01-11T12:19:55;20.30;;;18.00;;
25917;SDS011;13899;51.174;4.456;2024-01-11T12:22:21;21.95;;;18.70;;
25917;SDS011;13899;51.174;4.456;2024-01-11T12:24:47;22.13;;;19.65;;
25917;SDS011;13899;51.174;4.456;2024-01-11T12:27:13;21.52;;;18.25;;
25917;SDS011;13899;51.174;4.456;2024-01-11T12:29:39;22.67;;;17.50;;
25917;SDS011;13899;51.174;4.456;2024-01-11T12:32:05;25.33;;;17.63;;
25917;SDS011;13899;51.174;4.456;2024-01-11T12:34:31;22.03;;;17.20;;
25917;SDS011;13899;51.174;4.456;2024-01-11T12:36:57;25.88;;;18.98;;
25917;SDS011;13899;51.174;4.456;2024-01-11T12:39:25;22.50;;;19.00;;
25917;SDS011;13899;51.174;4.456;2024-01-11T12:41:52;27.13;;;24.80;;
25917;SDS011;13899;51.174;4.456;2024-01-11T12:44:21;19.05;;;17.02;;
25917;SDS011;13899;51.174;4.456;2024-01-11T12:46:49;24.20;;;17.77;;
25917;SDS011;13899;51.174;4.456;2024-01-11T12:49:16;19.60;;;16.95;;
25917;SDS011;13899;51.174;4.456;2024-01-11T12:51:42;19.58;;;17.58;;
25917;SDS011;13899;51.174;4.456;2024-01-11T12:54:14;21.40;;;18.55;;
25917;SDS011;13899;51.174;4.456;2024-01-11T12:56:43;21.80;;;19.60;;
25917;SDS011;13899;51.174;4.456;2024-01-11T12:59:09;23.02;;;20.20;;
25917;SDS011;13899;51.174;4.456;2024-01-11T13:04:02;23.33;;;20.40;;
25917;SDS011;13899;51.174;4.456;2024-01-11T13:06:28;18.60;;;16.60;;
25917;SDS011;13899;51.174;4.456;2024-01-11T13:08:56;24.67;;;22.05;;
25917;SDS011;13899;51.174;4.456;2024-01-11T13:11:22;21.98;;;19.83;;
25917;SDS011;13899;51.174;4.456;2024-01-11T13:13:49;24.23;;;21.23;;
25917;SDS011;13899;51.174;4.456;2024-01-11T13:16:15;22.23;;;19.52;;
25917;SDS011;13899;51.174;4.456;2024-01-11T13:18:44;23.10;;;18.20;;
25917;SDS011;13899;51.174;4.456;2024-01-11T13:21:10;22.90;;;20.52;;
25917;SDS011;13899;51.174;4.456;2024-01-11T13:23:39;18.60;;;16.70;;
25917;SDS011;13899;51.174;4.456;2024-01-11T13:26:05;24.42;;;22.13;;
25917;SDS011;13899;51.174;4.456;2024-01-11T13:28:35;24.75;;;18.77;;
25917;SDS011;13899;51.174;4.456;2024-01-11T13:31:00;22.80;;;18.98;;
25917;SDS011;13899;51.174;4.456;2024-01-11T13:33:27;20.95;;;18.65;;
25917;SDS011;13899;51.174;4.456;2024-01-11T13:35:53;23.92;;;21.33;;
25917;SDS011;13899;51.174;4.456;2024-01-11T13:38:19;24.27;;;19.15;;
25917;SDS011;13899;51.174;4.456;2024-01-11T13:40:45;25.95;;;22.17;;
25917;SDS011;13899;51.174;4.456;2024-01-11T13:43:10;26.70;;;20.02;;
25917;SDS011;13899;51.174;4.456;2024-01-11T13:45:36;30.15;;;25.77;;
25917;SDS011;13899;51.174;4.456;2024-01-11T13:48:02;27.73;;;19.63;;
25917;SDS011;13899;51.174;4.456;2024-01-11T13:50:29;29.70;;;24.83;;
25917;SDS011;13899;51.174;4.456;2024-01-11T13:52:54;29.13;;;23.08;;
25917;SDS011;13899;51.174;4.456;2024-01-11T13:55:20;26.03;;;19.90;;
25917;SDS011;13899;51.174;4.456;2024-01-11T13:57:46;28.23;;;19.70;;
25917;SDS011;13899;51.174;4.456;2024-01-11T14:00:12;23.67;;;18.98;;
25917;SDS011;13899;51.174;4.456;2024-01-11T14:02:39;24.47;;;18.67;;
25917;SDS011;13899;51.174;4.456;2024-01-11T14:05:05;24.27;;;18.48;;
25917;SDS011;13899;51.174;4.456;2024-01-11T14:07:37;25.83;;;19.00;;
25917;SDS011;13899;51.174;4.456;2024-01-11T14:10:04;24.15;;;18.92;;
25917;SDS011;13899;51.174;4.456;2024-01-11T14:12:30;26.35;;;23.70;;
25917;SDS011;13899;51.174;4.456;2024-01-11T14:14:57;21.77;;;15.63;;
25917;SDS011;13899;51.174;4.456;2024-01-11T14:17:22;24.17;;;19.25;;
25917;SDS011;13899;51.174;4.456;2024-01-11T14:19:48;30.77;;;19.42;;
25917;SDS011;13899;51.174;4.456;2024-01-11T14:22:14;24.75;;;19.05;;
25917;SDS011;13899;51.174;4.456;2024-01-11T14:24:40;21.02;;;18.05;;
25917;SDS011;13899;51.174;4.456;2024-01-11T14:27:05;13.10;;;11.60;;
25917;SDS011;13899;51.174;4.456;2024-01-11T14:29:31;15.48;;;9.90;;
25917;SDS011;13899;51.174;4.456;2024-01-11T14:31:57;14.33;;;9.53;;
25917;SDS011;13899;51.174;4.456;2024-01-11T14:34:22;14.00;;;10.27;;
25917;SDS011;13899;51.174;4.456;2024-01-11T14:36:49;12.93;;;9.00;;
25917;SDS011;13899;51.174;4.456;2024-01-11T14:39:14;15.37;;;9.83;;
25917;SDS011;13899;51.174;4.456;2024-01-11T14:41:40;15.63;;;13.33;;